sensor_id;sensor_type;location;lat;lon;timestamp;P1;durP1;ratioP1;P2;durP2;ratioP2
5414;SDS011;2730;51.512;7.504;2023-05-07T00:02:17;14.98;;;10.27;;
5414;SDS011;2730;51.512;7.504;2023-05-07T00:04:44;11.15;;;8.65;;
5414;SDS011;2730;51.512;7.504;2023-05-07T00:07:11;10.02;;;7.95;;
5414;SDS011;2730;51.512;7.504;2023-05-07T00:09:37;11.98;;;9.35;;
5414;SDS011;2730;51.512;7.504;2023-05-07T00:12:05;10.98;;;8.52;;
5414;SDS011;2730;51.512;7.504;2023-05-07T00:14:32;10.05;;;8.20;;
5414;SDS011;2730;51.512;7.504;2023-05-07T00:17:00;11.23;;;8.13;;
5414;SDS011;2730;51.512;7.504;2023-05-07T00:19:27;11.40;;;8.23;;
5414;SDS011;2730;51.512;7.504;2023-05-07T00:21:53;11.55;;;8.23;;
5414;SDS011;2730;51.512;7.504;2023-05-07T00:24:20;10.50;;;7.65;;
5414;SDS011;2730;51.512;7.504;2023-05-07T00:26:47;11.98;;;7.95;;
5414;SDS011;2730;51.512;7.504;2023-05-07T00:29:14;12.40;;;8.50;;
5414;SDS011;2730;51.512;7.504;2023-05-07T00:31:41;13.43;;;8.57;;
5414;SDS011;2730;51.512;7.504;2023-05-07T00:34:09;15.65;;;9.15;;
5414;SDS011;2730;51.512;7.504;2023-05-07T00:36:36;14.38;;;8.90;;
5414;SDS011;2730;51.512;7.504;2023-05-07T00:39:02;14.65;;;9.00;;
5414;SDS011;2730;51.512;7.504;2023-05-07T00:41:29;10.85;;;8.73;;
5414;SDS011;2730;51.512;7.504;2023-05-07T00:43:56;15.30;;;10.25;;
5414;SDS011;2730;51.512;7.504;2023-05-07T00:46:23;18.35;;;10.10;;
5414;SDS011;2730;51.512;7.504;2023-05-07T00:48:50;18.10;;;11.13;;
5414;SDS011;2730;51.512;7.504;2023-05-07T00:51:19;20.00;;;12.07;;
5414;SDS011;2730;51.512;7.504;2023-05-07T00:53:46;19.23;;;12.43;;
5414;SDS011;2730;51.512;7.504;2023-05-07T00:56:13;20.70;;;13.13;;
5414;SDS011;2730;51.512;7.504;2023-05-07T00:58:40;20.08;;;12.98;;
5414;SDS011;2730;51.512;7.504;2023-05-07T01:01:07;17.98;;;12.75;;
5414;SDS011;2730;51.512;7.504;2023-05-07T01:03:34;18.23;;;12.17;;
5414;SDS011;2730;51.512;7.504;2023-05-07T01:06:01;18.90;;;12.05;;
5414;SDS011;2730;51.512;7.504;2023-05-07T01:08:31;15.98;;;11.60;;
5414;SDS011;2730;51.512;7.504;2023-05-07T01:11:00;17.67;;;12.10;;
5414;SDS011;2730;51.512;7.504;2023-05-07T01:13:27;16.23;;;12.10;;
5414;SDS011;2730;51.512;7.504;2023-05-07T01:15:54;21.75;;;12.90;;
5414;SDS011;2730;51.512;7.504;2023-05-07T01:18:21;17.27;;;12.65;;
5414;SDS011;2730;51.512;7.504;2023-05-07T01:20:48;18.60;;;12.20;;
5414;SDS011;2730;51.512;7.504;2023-05-07T01:23:16;24.23;;;12.33;;
5414;SDS011;2730;51.512;7.504;2023-05-07T01:25:50;22.03;;;12.50;;
5414;SDS011;2730;51.512;7.504;2023-05-07T01:28:17;18.38;;;13.02;;
5414;SDS011;2730;51.512;7.504;2023-05-07T01:30:45;18.88;;;12.43;;
5414;SDS011;2730;51.512;7.504;2023-05-07T01:33:15;17.73;;;12.82;;
5414;SDS011;2730;51.512;7.504;2023-05-07T01:35:47;20.02;;;12.98;;
5414;SDS011;2730;51.512;7.504;2023-05-07T01:38:16;17.93;;;12.20;;
5414;SDS011;2730;51.512;7.504;2023-05-07T01:40:44;17.33;;;12.00;;
5414;SDS011;2730;51.512;7.504;2023-05-07T01:43:11;18.95;;;12.55;;
5414;SDS011;2730;51.512;7.504;2023-05-07T01:45:38;16.30;;;11.33;;
5414;SDS011;2730;51.512;7.504;2023-05-07T01:48:07;17.23;;;12.45;;
5414;SDS011;2730;51.512;7.504;2023-05-07T01:50:36;17.27;;;11.35;;
5414;SDS011;2730;51.512;7.504;2023-05-07T01:53:03;20.80;;;12.40;;
5414;SDS011;2730;51.512;7.504;2023-05-07T01:55:31;16.17;;;11.95;;
5414;SDS011;2730;51.512;7.504;2023-05-07T01:57:58;18.10;;;11.70;;
5414;SDS011;2730;51.512;7.504;2023-05-07T02:00:25;18.25;;;11.63;;
5414;SDS011;2730;51.512;7.504;2023-05-07T02:02:52;18.50;;;12.68;;
5414;SDS011;2730;51.512;7.504;2023-05-07T02:05:19;16.85;;;11.88;;
5414;SDS011;2730;51.512;7.504;2023-05-07T02:07:45;16.55;;;12.52;;
5414;SDS011;2730;51.512;7.504;2023-05-07T02:10:12;20.92;;;12.60;;
5414;SDS011;2730;51.512;7.504;2023-05-07T02:12:40;16.52;;;11.07;;
5414;SDS011;2730;51.512;7.504;2023-05-07T02:15:07;17.98;;;12.07;;
5414;SDS011;2730;51.512;7.504;2023-05-07T02:17:35;21.10;;;11.63;;
5414;SDS011;2730;51.512;7.504;2023-05-07T02:20:06;17.52;;;12.60;;
5414;SDS011;2730;51.512;7.504;2023-05-07T02:22:38;17.67;;;12.23;;
5414;SDS011;2730;51.512;7.504;2023-05-07T02:25:05;17.63;;;12.10;;
5414;SDS011;2730;51.512;7.504;2023-05-07T02:27:32;16.97;;;12.40;;
5414;SDS011;2730;51.512;7.504;2023-05-07T02:30:00;15.53;;;11.77;;
5414;SDS011;2730;51.512;7.504;2023-05-07T02:32:26;20.60;;;13.13;;
5414;SDS011;2730;51.512;7.504;2023-05-07T02:34:53;17.88;;;11.65;;
5414;SDS011;2730;51.512;7.504;2023-05-07T02:37:20;22.02;;;12.63;;
5414;SDS011;2730;51.512;7.504;2023-05-07T02:39:47;16.70;;;11.50;;
5414;SDS011;2730;51.512;7.504;2023-05-07T02:42:13;15.65;;;12.13;;
5414;SDS011;2730;51.512;7.504;2023-05-07T02:44:40;18.73;;;13.13;;
5414;SDS011;2730;51.512;7.504;2023-05-07T02:47:08;18.10;;;13.68;;
5414;SDS011;2730;51.512;7.504;2023-05-07T02:49:35;22.33;;;14.38;;
5414;SDS011;2730;51.512;7.504;2023-05-07T02:52:02;18.05;;;13.20;;
5414;SDS011;2730;51.512;7.504;2023-05-07T02:54:29;23.55;;;14.10;;
5414;SDS011;2730;51.512;7.504;2023-05-07T02:56:55;20.42;;;14.18;;
5414;SDS011;2730;51.512;7.504;2023-05-07T02:59:22;21.83;;;14.55;;
5414;SDS011;2730;51.512;7.504;2023-05-07T03:01:51;24.73;;;15.45;;
5414;SDS011;2730;51.512;7.504;2023-05-07T03:04:19;23.00;;;15.40;;
5414;SDS011;2730;51.512;7.504;2023-05-07T03:06:46;22.88;;;16.17;;
5414;SDS011;2730;51.512;7.504;2023-05-07T03:09:13;24.98;;;15.18;;
5414;SDS011;2730;51.512;7.504;2023-05-07T03:11:39;25.08;;;15.18;;
5414;SDS011;2730;51.512;7.504;2023-05-07T03:14:06;29.40;;;17.40;;
5414;SDS011;2730;51.512;7.504;2023-05-07T03:16:33;25.90;;;16.38;;
5414;SDS011;2730;51.512;7.504;2023-05-07T03:19:00;31.10;;;15.50;;
5414;SDS011;2730;51.512;7.504;2023-05-07T03:21:28;24.77;;;15.48;;
5414;SDS011;2730;51.512;7.504;2023-05-07T03:23:55;25.30;;;16.33;;
5414;SDS011;2730;51.512;7.504;2023-05-07T03:26:22;22.33;;;14.45;;
5414;SDS011;2730;51.512;7.504;2023-05-07T03:28:49;24.48;;;16.52;;
5414;SDS011;2730;51.512;7.504;2023-05-07T03:31:15;25.92;;;16.33;;
5414;SDS011;2730;51.512;7.504;2023-05-07T03:33:49;29.13;;;17.10;;
5414;SDS011;2730;51.512;7.504;2023-05-07T03:36:17;26.00;;;16.27;;
5414;SDS011;2730;51.512;7.504;2023-05-07T03:38:46;25.35;;;16.33;;
5414;SDS011;2730;51.512;7.504;2023-05-07T03:41:14;22.10;;;14.65;;
5414;SDS011;2730;51.512;7.504;2023-05-07T03:43:40;24.00;;;14.70;;
5414;SDS011;2730;51.512;7.504;2023-05-07T03:46:07;26.05;;;14.30;;
5414;SDS011;2730;51.512;7.504;2023-05-07T03:48:34;23.15;;;14.52;;
5414;SDS011;2730;51.512;7.504;2023-05-07T03:51:01;24.45;;;15.73;;
5414;SDS011;2730;51.512;7.504;2023-05-07T03:53:28;18.67;;;13.35;;
5414;SDS011;2730;51.512;7.504;2023-05-07T03:55:56;20.23;;;15.23;;
5414;SDS011;2730;51.512;7.504;2023-05-07T03:58:23;21.08;;;14.35;;
5414;SDS011;2730;51.512;7.504;2023-05-07T04:00:50;21.80;;;14.85;;
5414;SDS011;2730;51.512;7.504;2023-05-07T04:03:16;25.15;;;14.10;;
5414;SDS011;2730;51.512;7.504;2023-05-07T04:05:43;21.77;;;13.25;;
5414;SDS011;2730;51.512;7.504;2023-05-07T04:08:10;22.73;;;14.88;;
5414;SDS011;2730;51.512;7.504;2023-05-07T04:10:37;21.00;;;14.33;;
5414;SDS011;2730;51.512;7.504;2023-05-07T04:13:05;20.35;;;14.10;;
5414;SDS011;2730;51.512;7.504;2023-05-07T04:15:31;20.75;;;13.50;;
5414;SDS011;2730;51.512;7.504;2023-05-07T04:17:58;20.73;;;13.00;;
5414;SDS011;2730;51.512;7.504;2023-05-07T04:20:25;23.30;;;13.63;;
5414;SDS011;2730;51.512;7.504;2023-05-07T04:22:51;18.92;;;13.48;;
5414;SDS011;2730;51.512;7.504;2023-05-07T04:25:18;26.67;;;14.07;;
5414;SDS011;2730;51.512;7.504;2023-05-07T04:27:45;20.02;;;13.25;;
5414;SDS011;2730;51.512;7.504;2023-05-07T04:30:14;24.88;;;14.20;;
5414;SDS011;2730;51.512;7.504;2023-05-07T04:32:40;17.83;;;13.35;;
5414;SDS011;2730;51.512;7.504;2023-05-07T04:35:09;19.33;;;13.30;;
5414;SDS011;2730;51.512;7.504;2023-05-07T04:37:36;17.13;;;12.45;;
5414;SDS011;2730;51.512;7.504;2023-05-07T04:40:03;19.77;;;12.65;;
5414;SDS011;2730;51.512;7.504;2023-05-07T04:42:30;17.98;;;12.40;;
5414;SDS011;2730;51.512;7.504;2023-05-07T04:44:57;19.27;;;13.05;;
5414;SDS011;2730;51.512;7.504;2023-05-07T04:47:25;17.63;;;11.15;;
5414;SDS011;2730;51.512;7.504;2023-05-07T04:49:52;15.60;;;11.50;;
5414;SDS011;2730;51.512;7.504;2023-05-07T04:52:18;15.60;;;11.75;;
5414;SDS011;2730;51.512;7.504;2023-05-07T04:54:45;15.65;;;11.35;;
5414;SDS011;2730;51.512;7.504;2023-05-07T04:57:12;18.63;;;12.40;;
5414;SDS011;2730;51.512;7.504;2023-05-07T04:59:38;12.60;;;10.40;;
5414;SDS011;2730;51.512;7.504;2023-05-07T05:02:05;14.35;;;10.23;;
5414;SDS011;2730;51.512;7.504;2023-05-07T05:04:33;13.50;;;10.00;;
5414;SDS011;2730;51.512;7.504;2023-05-07T05:07:00;16.57;;;8.90;;
5414;SDS011;2730;51.512;7.504;2023-05-07T05:09:28;11.40;;;8.70;;
5414;SDS011;2730;51.512;7.504;2023-05-07T05:11:55;12.40;;;9.97;;
5414;SDS011;2730;51.512;7.504;2023-05-07T05:14:22;11.87;;;9.80;;
5414;SDS011;2730;51.512;7.504;2023-05-07T05:16:48;14.38;;;10.73;;
5414;SDS011;2730;51.512;7.504;2023-05-07T05:19:15;11.30;;;8.90;;
5414;SDS011;2730;51.512;7.504;2023-05-07T05:21:43;9.73;;;8.20;;
5414;SDS011;2730;51.512;7.504;2023-05-07T05:24:10;15.43;;;8.70;;
5414;SDS011;2730;51.512;7.504;2023-05-07T05:26:37;9.20;;;7.30;;
5414;SDS011;2730;51.512;7.504;2023-05-07T05:29:04;10.97;;;7.17;;
5414;SDS011;2730;51.512;7.504;2023-05-07T05:31:31;11.40;;;8.33;;
5414;SDS011;2730;51.512;7.504;2023-05-07T05:33:58;13.30;;;9.00;;
5414;SDS011;2730;51.512;7.504;2023-05-07T05:36:25;10.80;;;8.30;;
5414;SDS011;2730;51.512;7.504;2023-05-07T05:38:53;8.57;;;7.30;;
5414;SDS011;2730;51.512;7.504;2023-05-07T05:41:20;10.47;;;7.10;;
5414;SDS011;2730;51.512;7.504;2023-05-07T05:43:46;8.60;;;7.70;;
5414;SDS011;2730;51.512;7.504;2023-05-07T05:46:13;8.57;;;7.33;;
5414;SDS011;2730;51.512;7.504;2023-05-07T05:48:41;14.60;;;7.67;;
5414;SDS011;2730;51.512;7.504;2023-05-07T05:51:07;8.27;;;6.83;;
5414;SDS011;2730;51.512;7.504;2023-05-07T05:53:34;9.30;;;7.60;;
5414;SDS011;2730;51.512;7.504;2023-05-07T05:56:03;8.97;;;7.57;;
5414;SDS011;2730;51.512;7.504;2023-05-07T05:58:30;8.93;;;7.67;;
5414;SDS011;2730;51.512;7.504;2023-05-07T06:00:57;11.90;;;7.03;;
5414;SDS011;2730;51.512;7.504;2023-05-07T06:03:24;13.43;;;6.83;;
5414;SDS011;2730;51.512;7.504;2023-05-07T06:05:51;7.30;;;6.03;;
5414;SDS011;2730;51.512;7.504;2023-05-07T06:08:17;10.23;;;6.33;;
5414;SDS011;2730;51.512;7.504;2023-05-07T06:10:44;9.63;;;6.33;;
5414;SDS011;2730;51.512;7.504;2023-05-07T06:13:12;8.93;;;5.90;;
5414;SDS011;2730;51.512;7.504;2023-05-07T06:15:39;5.77;;;5.17;;
5414;SDS011;2730;51.512;7.504;2023-05-07T06:18:06;9.10;;;5.73;;
5414;SDS011;2730;51.512;7.504;2023-05-07T06:20:33;7.37;;;6.00;;
5414;SDS011;2730;51.512;7.504;2023-05-07T06:23:00;5.47;;;4.70;;
5414;SDS011;2730;51.512;7.504;2023-05-07T06:25:26;8.20;;;4.60;;
5414;SDS011;2730;51.512;7.504;2023-05-07T06:27:53;6.20;;;4.73;;
5414;SDS011;2730;51.512;7.504;2023-05-07T06:30:21;4.47;;;4.17;;
5414;SDS011;2730;51.512;7.504;2023-05-07T06:32:48;6.07;;;4.23;;
5414;SDS011;2730;51.512;7.504;2023-05-07T06:35:15;5.00;;;4.60;;
5414;SDS011;2730;51.512;7.504;2023-05-07T06:37:42;6.20;;;4.70;;
5414;SDS011;2730;51.512;7.504;2023-05-07T06:40:09;4.10;;;3.80;;
5414;SDS011;2730;51.512;7.504;2023-05-07T06:42:36;4.43;;;4.13;;
5414;SDS011;2730;51.512;7.504;2023-05-07T06:45:04;7.13;;;4.63;;
5414;SDS011;2730;51.512;7.504;2023-05-07T06:47:32;7.57;;;5.13;;
5414;SDS011;2730;51.512;7.504;2023-05-07T06:49:59;5.30;;;4.90;;
5414;SDS011;2730;51.512;7.504;2023-05-07T06:52:26;5.43;;;4.93;;
5414;SDS011;2730;51.512;7.504;2023-05-07T06:54:53;5.30;;;4.60;;
5414;SDS011;2730;51.512;7.504;2023-05-07T06:57:20;5.60;;;5.20;;
5414;SDS011;2730;51.512;7.504;2023-05-07T06:59:46;5.77;;;5.20;;
5414;SDS011;2730;51.512;7.504;2023-05-07T07:02:13;7.87;;;6.00;;
5414;SDS011;2730;51.512;7.504;2023-05-07T07:04:41;6.60;;;6.00;;
5414;SDS011;2730;51.512;7.504;2023-05-07T07:07:08;5.97;;;5.10;;
5414;SDS011;2730;51.512;7.504;2023-05-07T07:09:35;8.13;;;6.10;;
5414;SDS011;2730;51.512;7.504;2023-05-07T07:12:02;6.90;;;5.97;;
5414;SDS011;2730;51.512;7.504;2023-05-07T07:14:29;10.03;;;5.83;;
5414;SDS011;2730;51.512;7.504;2023-05-07T07:16:56;8.17;;;6.60;;
5414;SDS011;2730;51.512;7.504;2023-05-07T07:19:22;7.07;;;6.37;;
5414;SDS011;2730;51.512;7.504;2023-05-07T07:21:51;8.57;;;6.80;;
5414;SDS011;2730;51.512;7.504;2023-05-07T07:24:18;8.33;;;5.50;;
5414;SDS011;2730;51.512;7.504;2023-05-07T07:26:46;6.23;;;5.50;;
5414;SDS011;2730;51.512;7.504;2023-05-07T07:29:13;5.87;;;5.30;;
5414;SDS011;2730;51.512;7.504;2023-05-07T07:31:39;6.53;;;5.70;;
5414;SDS011;2730;51.512;7.504;2023-05-07T07:34:06;9.73;;;6.07;;
5414;SDS011;2730;51.512;7.504;2023-05-07T07:36:33;6.20;;;5.50;;
5414;SDS011;2730;51.512;7.504;2023-05-07T07:39:01;6.73;;;5.33;;
5414;SDS011;2730;51.512;7.504;2023-05-07T07:41:28;7.03;;;5.40;;
5414;SDS011;2730;51.512;7.504;2023-05-07T07:43:55;6.30;;;5.07;;
5414;SDS011;2730;51.512;7.504;2023-05-07T07:46:21;12.13;;;6.43;;
5414;SDS011;2730;51.512;7.504;2023-05-07T07:48:48;12.67;;;6.13;;
5414;SDS011;2730;51.512;7.504;2023-05-07T07:51:15;10.13;;;6.40;;
5414;SDS011;2730;51.512;7.504;2023-05-07T07:53:41;8.57;;;6.63;;
5414;SDS011;2730;51.512;7.504;2023-05-07T07:56:09;9.13;;;6.53;;
5414;SDS011;2730;51.512;7.504;2023-05-07T07:58:37;7.57;;;5.67;;
5414;SDS011;2730;51.512;7.504;2023-05-07T08:01:04;6.03;;;5.43;;
5414;SDS011;2730;51.512;7.504;2023-05-07T08:03:31;7.23;;;6.50;;
5414;SDS011;2730;51.512;7.504;2023-05-07T08:05:58;7.80;;;6.87;;
5414;SDS011;2730;51.512;7.504;2023-05-07T08:08:25;6.63;;;5.90;;
5414;SDS011;2730;51.512;7.504;2023-05-07T08:10:51;10.37;;;7.10;;
5414;SDS011;2730;51.512;7.504;2023-05-07T08:13:19;7.50;;;6.53;;
5414;SDS011;2730;51.512;7.504;2023-05-07T08:15:46;8.83;;;7.70;;
5414;SDS011;2730;51.512;7.504;2023-05-07T08:18:13;10.43;;;7.83;;
5414;SDS011;2730;51.512;7.504;2023-05-07T08:20:40;8.30;;;7.50;;
5414;SDS011;2730;51.512;7.504;2023-05-07T08:23:07;9.83;;;7.47;;
5414;SDS011;2730;51.512;7.504;2023-05-07T08:25:34;10.77;;;8.80;;
5414;SDS011;2730;51.512;7.504;2023-05-07T08:28:01;10.53;;;8.37;;
5414;SDS011;2730;51.512;7.504;2023-05-07T08:30:29;11.23;;;9.07;;
5414;SDS011;2730;51.512;7.504;2023-05-07T08:32:56;15.63;;;8.90;;
5414;SDS011;2730;51.512;7.504;2023-05-07T08:35:23;14.27;;;9.43;;
5414;SDS011;2730;51.512;7.504;2023-05-07T08:37:50;14.97;;;10.70;;
5414;SDS011;2730;51.512;7.504;2023-05-07T08:40:17;12.87;;;9.43;;
5414;SDS011;2730;51.512;7.504;2023-05-07T08:42:44;17.60;;;9.83;;
5414;SDS011;2730;51.512;7.504;2023-05-07T08:45:15;12.50;;;9.23;;
5414;SDS011;2730;51.512;7.504;2023-05-07T08:47:46;11.13;;;9.00;;
5414;SDS011;2730;51.512;7.504;2023-05-07T08:50:15;16.00;;;10.93;;
5414;SDS011;2730;51.512;7.504;2023-05-07T08:52:42;19.63;;;11.13;;
5414;SDS011;2730;51.512;7.504;2023-05-07T08:55:09;14.80;;;11.07;;
5414;SDS011;2730;51.512;7.504;2023-05-07T08:57:36;15.13;;;10.77;;
5414;SDS011;2730;51.512;7.504;2023-05-07T09:00:03;15.70;;;9.73;;
5414;SDS011;2730;51.512;7.504;2023-05-07T09:02:32;12.87;;;9.90;;
5414;SDS011;2730;51.512;7.504;2023-05-07T09:05:00;16.43;;;10.27;;
5414;SDS011;2730;51.512;7.504;2023-05-07T09:07:27;15.30;;;10.00;;
5414;SDS011;2730;51.512;7.504;2023-05-07T09:09:54;16.27;;;9.93;;
5414;SDS011;2730;51.512;7.504;2023-05-07T09:12:22;13.13;;;9.20;;
5414;SDS011;2730;51.512;7.504;2023-05-07T09:14:49;13.53;;;10.03;;
5414;SDS011;2730;51.512;7.504;2023-05-07T09:17:16;11.60;;;9.90;;
5414;SDS011;2730;51.512;7.504;2023-05-07T09:19:43;12.47;;;9.30;;
5414;SDS011;2730;51.512;7.504;2023-05-07T09:22:12;11.97;;;9.67;;
5414;SDS011;2730;51.512;7.504;2023-05-07T09:24:39;13.70;;;10.13;;
5414;SDS011;2730;51.512;7.504;2023-05-07T09:27:06;12.60;;;9.20;;
5414;SDS011;2730;51.512;7.504;2023-05-07T09:29:35;12.20;;;9.67;;
5414;SDS011;2730;51.512;7.504;2023-05-07T09:32:01;14.90;;;10.40;;
5414;SDS011;2730;51.512;7.504;2023-05-07T09:34:29;15.10;;;9.20;;
5414;SDS011;2730;51.512;7.504;2023-05-07T09:36:55;18.30;;;9.67;;
5414;SDS011;2730;51.512;7.504;2023-05-07T09:39:25;13.60;;;9.60;;
5414;SDS011;2730;51.512;7.504;2023-05-07T09:41:52;13.13;;;9.80;;
5414;SDS011;2730;51.512;7.504;2023-05-07T09:44:20;15.17;;;9.70;;
5414;SDS011;2730;51.512;7.504;2023-05-07T09:46:47;13.67;;;10.40;;
5414;SDS011;2730;51.512;7.504;2023-05-07T09:49:20;14.23;;;10.10;;
5414;SDS011;2730;51.512;7.504;2023-05-07T09:51:49;10.37;;;8.43;;
5414;SDS011;2730;51.512;7.504;2023-05-07T09:54:17;10.27;;;8.10;;
5414;SDS011;2730;51.512;7.504;2023-05-07T09:56:45;12.20;;;9.10;;
5414;SDS011;2730;51.512;7.504;2023-05-07T09:59:14;9.13;;;6.90;;
5414;SDS011;2730;51.512;7.504;2023-05-07T10:01:43;8.67;;;7.83;;
5414;SDS011;2730;51.512;7.504;2023-05-07T10:04:10;10.33;;;7.57;;
5414;SDS011;2730;51.512;7.504;2023-05-07T10:06:38;8.70;;;7.80;;
5414;SDS011;2730;51.512;7.504;2023-05-07T10:09:06;9.80;;;7.20;;
5414;SDS011;2730;51.512;7.504;2023-05-07T10:11:34;10.23;;;9.13;;
5414;SDS011;2730;51.512;7.504;2023-05-07T10:14:03;10.87;;;7.80;;
5414;SDS011;2730;51.512;7.504;2023-05-07T10:16:31;9.17;;;7.87;;
5414;SDS011;2730;51.512;7.504;2023-05-07T10:19:02;10.17;;;8.10;;
5414;SDS011;2730;51.512;7.504;2023-05-07T10:21:29;10.50;;;7.93;;
5414;SDS011;2730;51.512;7.504;2023-05-07T10:23:58;9.87;;;8.70;;
5414;SDS011;2730;51.512;7.504;2023-05-07T10:26:27;10.30;;;6.57;;
5414;SDS011;2730;51.512;7.504;2023-05-07T10:28:57;9.10;;;7.97;;
5414;SDS011;2730;51.512;7.504;2023-05-07T10:31:35;7.57;;;6.20;;
5414;SDS011;2730;51.512;7.504;2023-05-07T10:34:23;7.57;;;6.90;;
5414;SDS011;2730;51.512;7.504;2023-05-07T10:36:52;10.30;;;8.27;;
5414;SDS011;2730;51.512;7.504;2023-05-07T10:39:21;8.43;;;7.63;;
5414;SDS011;2730;51.512;7.504;2023-05-07T10:41:48;8.63;;;7.60;;
5414;SDS011;2730;51.512;7.504;2023-05-07T10:44:24;15.20;;;8.93;;
5414;SDS011;2730;51.512;7.504;2023-05-07T10:47:04;12.00;;;8.33;;
5414;SDS011;2730;51.512;7.504;2023-05-07T10:49:34;10.63;;;8.77;;
5414;SDS011;2730;51.512;7.504;2023-05-07T10:52:10;11.90;;;8.23;;
5414;SDS011;2730;51.512;7.504;2023-05-07T10:54:39;10.37;;;7.77;;
5414;SDS011;2730;51.512;7.504;2023-05-07T11:00:01;9.03;;;7.83;;
5414;SDS011;2730;51.512;7.504;2023-05-07T11:05:33;12.00;;;7.80;;
5414;SDS011;2730;51.512;7.504;2023-05-07T11:08:01;12.93;;;7.63;;
5414;SDS011;2730;51.512;7.504;2023-05-07T11:10:47;9.87;;;7.00;;
5414;SDS011;2730;51.512;7.504;2023-05-07T11:13:19;7.90;;;6.77;;
5414;SDS011;2730;51.512;7.504;2023-05-07T11:16:16;9.97;;;7.70;;
5414;SDS011;2730;51.512;7.504;2023-05-07T11:18:48;15.93;;;7.20;;
5414;SDS011;2730;51.512;7.504;2023-05-07T11:21:34;10.23;;;7.80;;
5414;SDS011;2730;51.512;7.504;2023-05-07T11:24:02;13.90;;;9.67;;
5414;SDS011;2730;51.512;7.504;2023-05-07T11:26:41;11.33;;;8.67;;
5414;SDS011;2730;51.512;7.504;2023-05-07T11:29:13;12.47;;;7.60;;
5414;SDS011;2730;51.512;7.504;2023-05-07T11:31:41;12.67;;;9.13;;
5414;SDS011;2730;51.512;7.504;2023-05-07T11:34:09;13.80;;;8.60;;
5414;SDS011;2730;51.512;7.504;2023-05-07T11:36:41;9.53;;;7.57;;
5414;SDS011;2730;51.512;7.504;2023-05-07T11:39:22;12.60;;;8.17;;
5414;SDS011;2730;51.512;7.504;2023-05-07T11:41:50;13.10;;;8.87;;
5414;SDS011;2730;51.512;7.504;2023-05-07T11:44:17;12.33;;;8.70;;
5414;SDS011;2730;51.512;7.504;2023-05-07T11:46:44;11.83;;;8.23;;
5414;SDS011;2730;51.512;7.504;2023-05-07T11:49:12;11.07;;;7.60;;
5414;SDS011;2730;51.512;7.504;2023-05-07T11:51:39;14.67;;;7.77;;
5414;SDS011;2730;51.512;7.504;2023-05-07T11:54:07;9.63;;;6.93;;
5414;SDS011;2730;51.512;7.504;2023-05-07T11:56:36;12.17;;;7.70;;
5414;SDS011;2730;51.512;7.504;2023-05-07T11:59:03;11.47;;;9.00;;
5414;SDS011;2730;51.512;7.504;2023-05-07T12:01:30;11.80;;;8.20;;
5414;SDS011;2730;51.512;7.504;2023-05-07T12:03:57;10.37;;;8.53;;
5414;SDS011;2730;51.512;7.504;2023-05-07T12:06:25;17.47;;;10.13;;
5414;SDS011;2730;51.512;7.504;2023-05-07T12:08:52;15.53;;;9.57;;
5414;SDS011;2730;51.512;7.504;2023-05-07T12:11:22;10.27;;;8.67;;
5414;SDS011;2730;51.512;7.504;2023-05-07T12:13:50;10.20;;;7.47;;
5414;SDS011;2730;51.512;7.504;2023-05-07T12:16:16;13.17;;;9.43;;
5414;SDS011;2730;51.512;7.504;2023-05-07T12:18:44;9.03;;;7.40;;
5414;SDS011;2730;51.512;7.504;2023-05-07T12:21:11;9.80;;;7.10;;
5414;SDS011;2730;51.512;7.504;2023-05-07T12:23:39;7.57;;;6.50;;
5414;SDS011;2730;51.512;7.504;2023-05-07T12:26:06;14.30;;;7.80;;
5414;SDS011;2730;51.512;7.504;2023-05-07T12:28:38;6.83;;;6.13;;
5414;SDS011;2730;51.512;7.504;2023-05-07T12:31:05;11.97;;;8.67;;
5414;SDS011;2730;51.512;7.504;2023-05-07T12:33:32;11.00;;;7.87;;
5414;SDS011;2730;51.512;7.504;2023-05-07T12:36:02;14.73;;;7.50;;
5414;SDS011;2730;51.512;7.504;2023-05-07T12:38:34;9.90;;;7.60;;
5414;SDS011;2730;51.512;7.504;2023-05-07T12:41:03;10.40;;;7.53;;
5414;SDS011;2730;51.512;7.504;2023-05-07T12:43:33;12.40;;;7.87;;
5414;SDS011;2730;51.512;7.504;2023-05-07T12:46:00;9.90;;;6.50;;
5414;SDS011;2730;51.512;7.504;2023-05-07T12:48:29;9.37;;;7.07;;
5414;SDS011;2730;51.512;7.504;2023-05-07T12:50:57;8.50;;;6.50;;
5414;SDS011;2730;51.512;7.504;2023-05-07T12:53:26;9.90;;;5.30;;
5414;SDS011;2730;51.512;7.504;2023-05-07T12:55:54;9.10;;;5.13;;
5414;SDS011;2730;51.512;7.504;2023-05-07T12:58:24;7.67;;;5.60;;
5414;SDS011;2730;51.512;7.504;2023-05-07T13:00:52;6.57;;;5.53;;
5414;SDS011;2730;51.512;7.504;2023-05-07T13:03:23;7.13;;;5.17;;
5414;SDS011;2730;51.512;7.504;2023-05-07T13:05:51;6.23;;;5.50;;
5414;SDS011;2730;51.512;7.504;2023-05-07T13:08:26;5.77;;;5.17;;
5414;SDS011;2730;51.512;7.504;2023-05-07T13:10:54;5.97;;;5.43;;
5414;SDS011;2730;51.512;7.504;2023-05-07T13:13:20;7.80;;;5.13;;
5414;SDS011;2730;51.512;7.504;2023-05-07T13:15:49;7.70;;;4.70;;
5414;SDS011;2730;51.512;7.504;2023-05-07T13:18:15;7.30;;;4.87;;
5414;SDS011;2730;51.512;7.504;2023-05-07T13:20:42;5.43;;;4.90;;
5414;SDS011;2730;51.512;7.504;2023-05-07T13:23:09;8.00;;;4.83;;
5414;SDS011;2730;51.512;7.504;2023-05-07T13:25:36;4.93;;;4.30;;
5414;SDS011;2730;51.512;7.504;2023-05-07T13:28:03;11.00;;;4.20;;
5414;SDS011;2730;51.512;7.504;2023-05-07T13:30:30;4.43;;;4.00;;
5414;SDS011;2730;51.512;7.504;2023-05-07T13:32:58;4.77;;;4.37;;
5414;SDS011;2730;51.512;7.504;2023-05-07T13:35:25;5.10;;;4.60;;
5414;SDS011;2730;51.512;7.504;2023-05-07T13:37:51;5.20;;;4.70;;
5414;SDS011;2730;51.512;7.504;2023-05-07T13:40:19;6.50;;;4.50;;
5414;SDS011;2730;51.512;7.504;2023-05-07T13:42:46;8.50;;;5.50;;
5414;SDS011;2730;51.512;7.504;2023-05-07T13:45:13;6.50;;;5.20;;
5414;SDS011;2730;51.512;7.504;2023-05-07T13:47:40;5.87;;;5.30;;
5414;SDS011;2730;51.512;7.504;2023-05-07T13:50:09;5.30;;;4.80;;
5414;SDS011;2730;51.512;7.504;2023-05-07T13:52:38;10.00;;;5.60;;
5414;SDS011;2730;51.512;7.504;2023-05-07T13:55:06;5.43;;;4.70;;
5414;SDS011;2730;51.512;7.504;2023-05-07T13:57:33;4.70;;;4.30;;
5414;SDS011;2730;51.512;7.504;2023-05-07T14:00:00;5.13;;;4.63;;
5414;SDS011;2730;51.512;7.504;2023-05-07T14:02:27;4.20;;;3.80;;
5414;SDS011;2730;51.512;7.504;2023-05-07T14:04:53;8.97;;;5.20;;
5414;SDS011;2730;51.512;7.504;2023-05-07T14:07:21;8.00;;;5.27;;
5414;SDS011;2730;51.512;7.504;2023-05-07T14:09:48;7.60;;;5.07;;
5414;SDS011;2730;51.512;7.504;2023-05-07T14:12:15;7.67;;;5.90;;
5414;SDS011;2730;51.512;7.504;2023-05-07T14:14:42;9.30;;;6.63;;
5414;SDS011;2730;51.512;7.504;2023-05-07T14:17:08;7.03;;;6.13;;
5414;SDS011;2730;51.512;7.504;2023-05-07T14:19:35;7.27;;;6.03;;
5414;SDS011;2730;51.512;7.504;2023-05-07T14:22:02;8.70;;;6.00;;
5414;SDS011;2730;51.512;7.504;2023-05-07T14:24:30;12.80;;;7.20;;
5414;SDS011;2730;51.512;7.504;2023-05-07T14:26:57;8.43;;;6.33;;
5414;SDS011;2730;51.512;7.504;2023-05-07T14:29:23;13.10;;;6.97;;
5414;SDS011;2730;51.512;7.504;2023-05-07T14:31:50;9.70;;;6.97;;
5414;SDS011;2730;51.512;7.504;2023-05-07T14:34:17;10.80;;;6.10;;
5414;SDS011;2730;51.512;7.504;2023-05-07T14:36:44;6.83;;;6.13;;
5414;SDS011;2730;51.512;7.504;2023-05-07T14:39:11;9.00;;;6.30;;
5414;SDS011;2730;51.512;7.504;2023-05-07T14:41:39;8.17;;;5.90;;
5414;SDS011;2730;51.512;7.504;2023-05-07T14:44:06;7.97;;;6.30;;
5414;SDS011;2730;51.512;7.504;2023-05-07T14:46:32;6.77;;;6.13;;
5414;SDS011;2730;51.512;7.504;2023-05-07T14:48:59;7.57;;;6.03;;
5414;SDS011;2730;51.512;7.504;2023-05-07T14:51:28;7.90;;;6.00;;
5414;SDS011;2730;51.512;7.504;2023-05-07T14:53:55;7.53;;;6.73;;
5414;SDS011;2730;51.512;7.504;2023-05-07T14:56:22;6.70;;;5.77;;
5414;SDS011;2730;51.512;7.504;2023-05-07T14:58:50;6.50;;;5.90;;
5414;SDS011;2730;51.512;7.504;2023-05-07T15:01:17;6.27;;;5.67;;
5414;SDS011;2730;51.512;7.504;2023-05-07T15:03:44;5.43;;;4.90;;
5414;SDS011;2730;51.512;7.504;2023-05-07T15:06:10;5.13;;;4.63;;
5414;SDS011;2730;51.512;7.504;2023-05-07T15:08:37;4.10;;;3.70;;
5414;SDS011;2730;51.512;7.504;2023-05-07T15:11:04;5.23;;;4.40;;
5414;SDS011;2730;51.512;7.504;2023-05-07T15:13:31;8.30;;;4.77;;